Time;durP1;ratioP1;P1;durP2;ratioP2;P2;SDS_P1;SDS_P2;PMS_P1;PMS_P2;Temp;Humidity;BMP_temperature;BMP_pressure;BME280_temperature;BME280_humidity;BME280_pressure;Samples;Min_cycle;Max_cycle;Signal;HPM_P1;HPM_P2
2024/04/19 00:02:17;;;;;;;7.90;2.50;;;8.20;99.90;;;;;;5320898;26;20929;-63
2024/04/19 00:04:47;;;;;;;3.10;2.27;;;8.20;99.90;;;;;;5326689;26;20542;-64
2024/04/19 00:07:14;;;;;;;4.90;2.27;;;8.20;99.90;;;;;;5324483;26;20495;-64
2024/04/19 00:09:44;;;;;;;3.63;2.10;;;8.20;99.90;;;;;;5321061;26;20484;-64
2024/04/19 00:12:11;;;;;;;3.57;2.40;;;8.20;99.90;;;;;;5325921;26;20476;-65
2024/04/19 00:14:52;;;;;;;4.70;2.00;;;8.20;99.90;;;;;;5323832;26;20465;-65
2024/04/19 00:17:19;;;;;;;3.57;2.20;;;8.20;99.90;;;;;;5353535;26;21045;-65
2024/04/19 00:19:49;;;;;;;4.33;2.37;;;8.20;99.90;;;;;;5349456;26;20482;-64
2024/04/19 00:22:16;;;;;;;6.47;2.60;;;8.10;99.90;;;;;;5347163;26;20480;-64
2024/04/19 00:24:46;;;;;;;3.20;2.70;;;8.10;99.90;;;;;;5342803;26;21151;-63
2024/04/19 00:27:13;;;;;;;5.70;2.87;;;8.10;99.90;;;;;;5325206;26;20480;-65
2024/04/19 00:29:43;;;;;;;5.00;2.60;;;8.20;99.90;;;;;;5323641;26;20523;-64
2024/04/19 00:32:16;;;;;;;4.80;2.80;;;8.10;99.90;;;;;;5327629;26;20483;-64
2024/04/19 00:34:45;;;;;;;3.67;2.33;;;8.10;99.90;;;;;;5325993;26;20536;-64
2024/04/19 00:37:13;;;;;;;3.00;2.40;;;8.10;99.90;;;;;;5323214;26;20545;-64
2024/04/19 00:39:43;;;;;;;3.00;2.23;;;8.10;99.90;;;;;;5321921;26;20568;-64
2024/04/19 00:42:10;;;;;;;4.77;2.60;;;8.10;99.90;;;;;;5329762;26;20541;-64
2024/04/19 00:44:40;;;;;;;3.60;2.90;;;8.10;99.90;;;;;;5349362;26;20536;-65
2024/04/19 00:47:07;;;;;;;4.13;2.73;;;8.10;99.90;;;;;;5352599;26;20492;-64
2024/04/19 00:49:41;;;;;;;2.77;2.40;;;8.10;99.90;;;;;;5319350;26;20472;-65
2024/04/19 00:52:10;;;;;;;5.77;2.90;;;8.10;99.90;;;;;;5321622;26;20626;-64
2024/04/19 00:54:40;;;;;;;4.63;2.80;;;8.10;99.90;;;;;;5331075;26;21225;-64
2024/04/19 00:57:08;;;;;;;4.03;2.60;;;8.10;99.90;;;;;;5326684;26;20537;-65
2024/04/19 00:59:38;;;;;;;3.13;2.53;;;8.00;99.90;;;;;;5322546;26;20607;-64
2024/04/19 01:02:06;;;;;;;5.43;2.60;;;8.00;99.90;;;;;;5326072;26;20498;-65
2024/04/19 01:04:39;;;;;;;5.50;3.13;;;8.00;99.90;;;;;;5324117;26;20487;-64
2024/04/19 01:07:06;;;;;;;4.40;2.77;;;8.00;99.90;;;;;;5333467;26;20480;-65
2024/04/19 01:09:36;;;;;;;8.70;2.70;;;8.00;99.90;;;;;;5322086;26;20485;-63
2024/04/19 01:12:05;;;;;;;3.43;2.87;;;8.00;99.90;;;;;;5320213;26;20528;-64
2024/04/19 01:14:35;;;;;;;3.80;2.53;;;8.00;99.90;;;;;;5321650;26;20520;-65
2024/04/19 01:17:02;;;;;;;6.13;3.50;;;8.00;99.90;;;;;;5323123;26;20548;-64
2024/04/19 01:19:32;;;;;;;6.83;2.77;;;8.00;99.90;;;;;;5321040;26;20548;-64
2024/04/19 01:22:02;;;;;;;5.13;2.80;;;7.90;99.90;;;;;;5327495;26;20620;-64
2024/04/19 01:24:38;;;;;;;7.57;2.90;;;7.80;99.90;;;;;;5320152;26;20870;-64
2024/04/19 01:27:09;;;;;;;3.70;2.73;;;7.80;99.90;;;;;;5325331;26;21216;-64
2024/04/19 01:29:39;;;;;;;3.47;2.60;;;7.80;99.90;;;;;;5327925;26;20512;-65
2024/04/19 01:32:07;;;;;;;6.37;3.00;;;7.80;99.90;;;;;;5317849;26;21079;-64
2024/04/19 01:34:36;;;;;;;3.57;2.67;;;7.80;99.90;;;;;;5323943;26;20595;-65
2024/04/19 01:37:04;;;;;;;8.23;3.30;;;7.80;99.90;;;;;;5326749;26;21207;-64
2024/04/19 01:39:34;;;;;;;3.83;2.87;;;7.70;99.90;;;;;;5326283;26;20542;-64
2024/04/19 01:42:01;;;;;;;5.00;3.10;;;7.60;99.90;;;;;;5323027;26;20529;-64
2024/04/19 01:44:33;;;;;;;5.23;3.10;;;7.60;99.90;;;;;;5325784;26;20483;-68
2024/04/19 01:47:01;;;;;;;3.20;2.90;;;7.50;99.90;;;;;;5325996;26;21720;-67
2024/04/19 01:49:31;;;;;;;3.17;2.87;;;7.60;99.90;;;;;;5352734;26;20604;-67
2024/04/19 01:51:58;;;;;;;5.73;4.07;;;7.60;99.90;;;;;;5343311;26;20574;-67
2024/04/19 01:54:28;;;;;;;5.20;3.23;;;7.50;99.90;;;;;;5329211;26;20496;-67
2024/04/19 01:56:58;;;;;;;3.27;2.97;;;7.50;99.90;;;;;;5319760;26;20595;-67
2024/04/19 01:59:32;;;;;;;3.43;2.93;;;7.50;99.90;;;;;;5326294;26;20491;-67
2024/04/19 02:01:59;;;;;;;4.03;3.37;;;7.40;99.90;;;;;;5324250;26;20474;-68
2024/04/19 02:04:31;;;;;;;4.03;3.30;;;7.40;99.90;;;;;;5327356;26;20487;-68
2024/04/19 02:06:58;;;;;;;3.67;3.30;;;7.30;99.90;;;;;;5320660;26;20540;-67
2024/04/19 02:09:29;;;;;;;4.03;3.63;;;7.30;99.90;;;;;;5346873;26;20909;-67
2024/04/19 02:11:57;;;;;;;3.90;3.60;;;7.30;99.90;;;;;;5352534;26;20477;-67
2024/04/19 02:14:26;;;;;;;4.00;3.50;;;7.20;99.90;;;;;;5355240;26;20484;-67
2024/04/19 02:16:57;;;;;;;5.40;3.50;;;7.20;99.90;;;;;;5359567;26;20479;-67
2024/04/19 02:19:29;;;;;;;4.10;2.90;;;7.30;99.90;;;;;;5357429;26;21029;-67
2024/04/19 02:21:56;;;;;;;4.37;3.80;;;7.30;99.90;;;;;;5331122;26;21241;-68
2024/04/19 02:24:26;;;;;;;4.57;3.80;;;7.30;99.90;;;;;;5323092;26;20473;-68
2024/04/19 02:26:53;;;;;;;6.50;4.27;;;7.20;99.90;;;;;;5328086;26;20575;-68
2024/04/19 02:32:12;;;;;;;4.70;4.23;;;7.10;99.90;;;;;;5358655;26;20529;-67
2024/04/19 02:34:42;;;;;;;4.10;3.70;;;7.00;99.90;;;;;;5354083;26;20579;-67
2024/04/19 02:37:16;;;;;;;4.30;3.83;;;7.10;99.90;;;;;;5337418;26;21081;-67
2024/04/19 02:39:46;;;;;;;5.20;3.50;;;7.00;99.90;;;;;;5355687;26;20488;-67
2024/04/19 02:42:16;;;;;;;4.37;3.93;;;7.00;99.90;;;;;;5358057;26;20492;-67
2024/04/19 02:44:49;;;;;;;3.63;3.33;;;7.00;99.90;;;;;;5354875;26;20481;-67
2024/04/19 02:47:21;;;;;;;4.67;4.23;;;6.90;99.90;;;;;;5325948;26;20528;-67
2024/04/19 02:49:54;;;;;;;4.43;3.97;;;6.90;99.90;;;;;;5329511;26;20531;-67
2024/04/19 02:52:24;;;;;;;4.60;3.80;;;6.80;99.90;;;;;;5354491;26;20869;-67
2024/04/19 02:54:54;;;;;;;4.40;4.00;;;6.80;99.90;;;;;;5344349;26;20545;-67
2024/04/19 02:57:23;;;;;;;4.70;4.10;;;6.60;99.90;;;;;;5327024;26;20491;-68
2024/04/19 02:59:53;;;;;;;4.60;4.20;;;6.60;99.90;;;;;;5324146;26;20503;-68
2024/04/19 03:02:26;;;;;;;4.20;3.90;;;6.60;99.90;;;;;;5334225;26;21184;-67
2024/04/19 03:04:55;;;;;;;4.03;3.70;;;6.60;99.90;;;;;;5342477;26;20598;-68
2024/04/19 03:07:25;;;;;;;5.03;4.23;;;6.60;99.90;;;;;;5323343;26;21184;-68
2024/04/19 03:09:55;;;;;;;4.50;4.10;;;6.60;99.90;;;;;;5337590;26;20844;-68
2024/04/19 03:12:25;;;;;;;4.70;4.30;;;6.60;99.90;;;;;;5312444;26;20527;-67
2024/04/19 03:14:55;;;;;;;4.90;4.43;;;6.60;99.90;;;;;;5330654;26;23280;-67
2024/04/19 03:17:27;;;;;;;5.03;4.40;;;6.60;99.90;;;;;;5325232;26;20477;-67
2024/04/19 03:19:57;;;;;;;6.20;4.80;;;6.70;99.90;;;;;;5332212;26;21374;-68
2024/04/19 03:22:27;;;;;;;6.70;5.13;;;6.60;99.90;;;;;;5346472;26;20532;-67
2024/04/19 03:24:56;;;;;;;5.23;4.70;;;6.60;99.90;;;;;;5352490;26;20912;-67
2024/04/19 03:27:26;;;;;;;5.33;4.87;;;6.60;99.90;;;;;;5328166;26;20603;-67
2024/04/19 03:29:57;;;;;;;5.00;4.50;;;6.60;99.90;;;;;;5326983;26;20472;-68
2024/04/19 03:32:30;;;;;;;5.23;4.83;;;6.60;99.90;;;;;;5326986;26;21733;-67
2024/04/19 03:35:00;;;;;;;5.67;5.07;;;6.60;99.90;;;;;;5324958;26;20630;-67
2024/04/19 03:37:30;;;;;;;5.07;4.67;;;6.60;99.90;;;;;;5338857;26;20863;-68
2024/04/19 03:40:00;;;;;;;5.10;4.60;;;6.60;99.90;;;;;;5354192;26;20468;-67
2024/04/19 03:42:31;;;;;;;4.93;4.40;;;6.50;99.90;;;;;;5348355;26;20593;-67
2024/04/19 03:47:49;;;;;;;4.47;4.07;;;6.50;99.90;;;;;;5332001;26;20476;-68
2024/04/19 03:50:19;;;;;;;4.93;4.43;;;6.50;99.90;;;;;;5321748;26;20484;-67
2024/04/19 03:52:48;;;;;;;5.17;4.50;;;6.50;99.90;;;;;;5324965;26;20476;-68
2024/04/19 03:55:18;;;;;;;5.30;4.47;;;6.50;99.90;;;;;;5323987;26;20548;-67
2024/04/19 03:57:48;;;;;;;5.00;4.60;;;6.50;99.90;;;;;;5338835;26;20485;-68
2024/04/19 04:00:18;;;;;;;5.20;4.67;;;6.50;99.90;;;;;;5350352;26;20553;-67
2024/04/19 04:02:52;;;;;;;5.37;4.73;;;6.60;99.90;;;;;;5352290;26;20588;-67
2024/04/19 04:05:23;;;;;;;5.03;4.63;;;6.60;99.90;;;;;;5354308;26;20546;-68
2024/04/19 04:07:53;;;;;;;5.60;4.93;;;6.50;99.90;;;;;;5328939;26;21502;-67
2024/04/19 04:10:23;;;;;;;5.70;5.20;;;6.50;99.90;;;;;;5353973;26;20488;-67
2024/04/19 04:12:53;;;;;;;5.77;5.27;;;6.50;99.90;;;;;;5356644;26;20917;-67
2024/04/19 04:15:26;;;;;;;5.30;4.80;;;6.40;99.90;;;;;;5351514;26;21049;-68
2024/04/19 04:18:01;;;;;;;5.60;5.10;;;6.40;99.90;;;;;;5321245;26;20974;-68
2024/04/19 04:20:32;;;;;;;5.30;4.80;;;6.40;99.90;;;;;;5320431;26;20472;-67
2024/04/19 04:23:02;;;;;;;4.73;4.33;;;6.40;99.90;;;;;;5324491;26;20586;-67
2024/04/19 04:25:34;;;;;;;5.33;4.83;;;6.40;99.90;;;;;;5327515;26;20486;-67
2024/04/19 04:28:04;;;;;;;5.63;5.13;;;6.40;99.90;;;;;;5350994;26;20550;-67
2024/04/19 04:30:35;;;;;;;4.90;4.50;;;6.40;99.90;;;;;;5332012;26;21087;-68
2024/04/19 04:33:10;;;;;;;5.80;5.30;;;6.40;99.90;;;;;;5322643;26;21332;-67
2024/04/19 04:35:40;;;;;;;5.20;4.80;;;6.40;99.90;;;;;;5323691;26;20606;-68
2024/04/19 04:38:10;;;;;;;5.20;4.70;;;6.40;99.90;;;;;;5320348;26;20603;-68
2024/04/19 04:40:40;;;;;;;5.13;4.73;;;6.40;99.90;;;;;;5339595;26;20533;-67
2024/04/19 04:43:09;;;;;;;4.90;4.50;;;6.30;99.90;;;;;;5348243;26;20481;-67
2024/04/19 04:45:39;;;;;;;5.07;4.67;;;6.30;99.90;;;;;;5333543;26;20496;-68
2024/04/19 04:48:16;;;;;;;5.30;4.60;;;6.30;99.90;;;;;;5312425;26;20494;-68
2024/04/19 04:50:43;;;;;;;5.37;4.70;;;6.30;99.90;;;;;;5310100;26;20816;-68
2024/04/19 04:53:13;;;;;;;5.03;4.63;;;6.30;99.90;;;;;;5321596;26;20527;-68
2024/04/19 04:55:43;;;;;;;4.43;4.03;;;6.30;99.90;;;;;;5341094;26;20538;-68
2024/04/19 04:58:13;;;;;;;4.30;3.90;;;6.30;99.90;;;;;;5344536;26;20651;-67
2024/04/19 05:00:43;;;;;;;4.57;4.17;;;6.20;99.90;;;;;;5326859;26;20881;-68
2024/04/19 05:03:16;;;;;;;5.70;3.80;;;6.20;99.90;;;;;;5314978;26;20600;-67
2024/04/19 05:05:46;;;;;;;3.73;3.43;;;6.20;99.90;;;;;;5320143;26;20484;-68
2024/04/19 05:08:15;;;;;;;4.00;3.60;;;6.10;99.90;;;;;;5317042;26;20555;-65
2024/04/19 05:10:45;;;;;;;3.40;3.10;;;6.00;99.90;;;;;;5341155;26;20494;-63
2024/04/19 05:13:15;;;;;;;3.70;3.40;;;6.00;99.90;;;;;;5336852;26;20482;-64
2024/04/19 05:15:49;;;;;;;3.80;3.47;;;6.00;99.90;;;;;;5317539;26;20912;-65
2024/04/19 05:18:22;;;;;;;3.00;2.80;;;6.10;99.90;;;;;;5321153;26;20531;-65
2024/04/19 05:20:52;;;;;;;4.20;3.80;;;6.10;99.90;;;;;;5322484;26;20759;-65
2024/04/19 05:23:21;;;;;;;3.60;3.30;;;6.10;99.90;;;;;;5317044;26;22680;-65
2024/04/19 05:25:51;;;;;;;4.70;3.60;;;6.20;99.90;;;;;;5320096;26;20492;-64
2024/04/19 05:28:21;;;;;;;4.00;3.70;;;6.10;99.90;;;;;;5325488;26;20850;-64
2024/04/19 05:30:54;;;;;;;3.87;3.57;;;6.10;99.90;;;;;;5323701;26;20488;-63
2024/04/19 05:33:28;;;;;;;4.30;3.57;;;6.10;99.90;;;;;;5318373;26;20857;-65
2024/04/19 05:35:58;;;;;;;4.60;4.07;;;6.10;99.90;;;;;;5324713;26;20507;-65
2024/04/19 05:38:28;;;;;;;3.90;3.40;;;6.20;99.90;;;;;;5334609;26;20886;-65
2024/04/19 05:40:58;;;;;;;4.57;4.20;;;6.20;99.90;;;;;;5325207;26;20484;-65
2024/04/19 05:43:28;;;;;;;4.10;3.80;;;6.20;99.90;;;;;;5314565;26;20481;-64
2024/04/19 05:45:57;;;;;;;5.00;4.60;;;6.20;99.90;;;;;;5307897;26;20568;-65
2024/04/19 05:48:30;;;;;;;5.20;4.80;;;6.20;99.90;;;;;;5311797;26;20504;-65
2024/04/19 05:51:00;;;;;;;5.40;4.90;;;6.20;99.90;;;;;;5330008;26;20484;-65
2024/04/19 05:53:30;;;;;;;5.27;4.77;;;6.20;99.90;;;;;;5290004;26;20497;-64
2024/04/19 05:59:39;;;;;;;5.03;4.60;;;6.30;99.90;;;;;;5331286;26;20595;-64
2024/04/19 06:02:09;;;;;;;5.17;4.77;;;6.20;99.90;;;;;;5318995;26;20485;-64
2024/04/19 06:04:41;;;;;;;4.17;3.80;;;6.20;99.90;;;;;;5325152;26;20505;-64
2024/04/19 06:07:11;;;;;;;4.50;4.20;;;6.20;99.90;;;;;;5303109;26;21169;-64
2024/04/19 06:09:41;;;;;;;4.40;4.10;;;6.30;99.90;;;;;;5294487;26;20471;-64
2024/04/19 06:12:11;;;;;;;4.80;4.40;;;6.30;99.90;;;;;;5291509;26;20485;-65
2024/04/19 06:14:41;;;;;;;4.13;3.83;;;6.30;99.90;;;;;;5295049;26;20605;-65
2024/04/19 06:17:12;;;;;;;4.37;3.97;;;6.30;99.90;;;;;;5301625;26;20547;-65
2024/04/19 06:19:44;;;;;;;5.00;4.60;;;6.40;99.90;;;;;;5313637;26;20891;-65
2024/04/19 06:22:14;;;;;;;4.70;4.30;;;6.40;99.90;;;;;;5288153;26;20464;-65
2024/04/19 06:24:44;;;;;;;4.50;4.10;;;6.50;99.90;;;;;;5269826;26;21226;-65
2024/04/19 06:27:15;;;;;;;4.60;4.20;;;6.50;99.90;;;;;;5268250;26;20530;-66
2024/04/19 06:29:45;;;;;;;4.93;4.53;;;6.50;99.90;;;;;;5273988;26;20485;-65
2024/04/19 06:32:15;;;;;;;4.53;4.13;;;6.60;99.90;;;;;;5289072;26;20873;-65
2024/04/19 06:34:51;;;;;;;5.10;4.70;;;6.60;99.90;;;;;;5337148;26;20904;-66
2024/04/19 06:37:21;;;;;;;4.47;4.10;;;6.60;99.90;;;;;;5303365;26;21045;-64
2024/04/19 06:39:50;;;;;;;4.40;4.00;;;6.60;99.90;;;;;;5292690;26;20659;-65
2024/04/19 06:42:34;;;;;;;4.80;4.40;;;6.70;99.90;;;;;;5294148;26;20527;-65
2024/04/19 06:45:01;;;;;;;5.13;4.63;;;6.80;99.90;;;;;;5294283;26;20491;-65
2024/04/19 06:47:31;;;;;;;5.20;4.80;;;6.80;99.90;;;;;;5335586;26;20497;-65
2024/04/19 06:50:04;;;;;;;5.00;4.60;;;6.80;99.90;;;;;;5332932;26;21026;-65
2024/04/19 06:52:33;;;;;;;5.07;4.67;;;6.80;99.90;;;;;;5317473;26;20589;-65
2024/04/19 06:55:03;;;;;;;5.60;5.10;;;6.90;99.90;;;;;;5293178;26;21539;-65
2024/04/19 06:57:33;;;;;;;4.80;4.40;;;6.90;99.90;;;;;;5329711;26;20489;-64
2024/04/19 07:00:04;;;;;;;5.27;4.87;;;7.00;99.90;;;;;;5330750;26;20929;-65
2024/04/19 07:02:54;;;;;;;5.40;5.00;;;7.00;99.90;;;;;;5292656;26;20493;-65
2024/04/19 07:05:28;;;;;;;5.37;4.97;;;7.00;99.90;;;;;;5275109;26;20481;-65
2024/04/19 07:07:58;;;;;;;5.90;5.40;;;7.00;99.90;;;;;;5296675;26;24733;-66
2024/04/19 07:10:28;;;;;;;5.93;5.33;;;7.00;99.90;;;;;;5304433;26;20494;-65
2024/04/19 07:12:58;;;;;;;6.03;5.53;;;7.00;99.90;;;;;;5303365;26;20473;-65
2024/04/19 07:15:28;;;;;;;5.67;5.17;;;7.10;99.90;;;;;;5302336;26;20482;-65
2024/04/19 07:17:58;;;;;;;6.63;6.03;;;7.10;99.90;;;;;;5303057;26;20484;-65
2024/04/19 07:20:31;;;;;;;5.80;5.20;;;7.10;99.90;;;;;;5271501;26;21116;-65
2024/04/19 07:23:01;;;;;;;7.33;6.63;;;7.20;99.90;;;;;;5279220;26;20575;-64
2024/04/19 07:25:31;;;;;;;6.83;6.23;;;7.20;99.90;;;;;;5279963;26;21281;-65
2024/04/19 07:28:01;;;;;;;7.67;7.00;;;7.20;99.90;;;;;;5263163;26;20547;-65
2024/04/19 07:30:31;;;;;;;6.83;6.23;;;7.20;99.90;;;;;;5289487;26;21180;-65
2024/04/19 07:33:01;;;;;;;6.47;5.87;;;7.30;99.90;;;;;;5301151;26;20498;-64
2024/04/19 07:35:34;;;;;;;6.70;6.20;;;7.30;99.90;;;;;;5279103;26;21528;-65
2024/04/19 07:38:03;;;;;;;7.33;6.60;;;7.40;99.90;;;;;;5300486;26;20542;-65
2024/04/19 07:40:35;;;;;;;6.90;6.30;;;7.50;99.90;;;;;;5272492;26;20489;-65
2024/04/19 07:43:05;;;;;;;7.23;6.53;;;7.50;99.90;;;;;;5278453;26;23031;-64
2024/04/19 07:45:35;;;;;;;7.83;7.13;;;7.50;99.90;;;;;;5283177;26;21107;-65
2024/04/19 07:48:06;;;;;;;6.80;6.20;;;7.60;99.90;;;;;;5278988;26;21789;-65
2024/04/19 07:50:39;;;;;;;7.50;6.20;;;7.70;99.90;;;;;;5276686;26;20477;-64
2024/04/19 07:53:10;;;;;;;7.47;6.53;;;7.70;99.90;;;;;;5279313;26;20489;-65
2024/04/19 07:55:41;;;;;;;6.87;6.27;;;7.80;99.90;;;;;;5299483;26;22842;-65
2024/04/19 07:58:11;;;;;;;7.00;6.40;;;7.80;99.90;;;;;;5321364;26;20484;-65
2024/04/19 08:00:40;;;;;;;7.00;6.40;;;7.90;99.90;;;;;;5299418;26;20894;-65
2024/04/19 08:03:10;;;;;;;6.60;5.40;;;7.90;99.90;;;;;;5303599;26;20536;-66
2024/04/19 08:05:43;;;;;;;6.57;5.97;;;8.00;99.90;;;;;;5298328;26;20560;-65
2024/04/19 08:08:13;;;;;;;6.70;6.10;;;8.10;99.90;;;;;;5301419;26;20969;-65
2024/04/19 08:10:43;;;;;;;6.87;6.27;;;8.10;99.90;;;;;;5296796;26;20602;-65
2024/04/19 08:13:12;;;;;;;6.20;5.50;;;8.20;99.90;;;;;;5297493;26;20493;-65
2024/04/19 08:15:42;;;;;;;6.57;5.87;;;8.20;99.90;;;;;;5296344;26;20536;-66
2024/04/19 08:18:12;;;;;;;6.70;5.80;;;8.30;99.90;;;;;;5305459;26;20538;-65
2024/04/19 08:20:45;;;;;;;7.90;5.07;;;8.30;99.90;;;;;;5299573;26;20872;-65
2024/04/19 08:23:14;;;;;;;5.73;4.90;;;8.40;99.90;;;;;;5305768;26;20561;-65
2024/04/19 08:25:47;;;;;;;4.90;4.50;;;8.40;99.90;;;;;;5301878;26;20545;-66
2024/04/19 08:28:17;;;;;;;5.37;4.87;;;8.40;99.90;;;;;;5307040;26;20491;-65
2024/04/19 08:30:48;;;;;;;6.43;4.67;;;8.50;99.90;;;;;;5306061;26;20474;-65
2024/04/19 08:33:18;;;;;;;5.20;3.90;;;8.50;99.90;;;;;;5329243;26;21084;-65
2024/04/19 08:35:58;;;;;;;8.23;3.60;;;8.60;99.90;;;;;;5311452;26;21164;-65
2024/04/19 08:38:28;;;;;;;8.03;4.30;;;8.70;99.90;;;;;;5287784;26;20492;-65
2024/04/19 08:41:00;;;;;;;4.00;2.70;;;8.80;99.90;;;;;;5294682;26;20485;-65
2024/04/19 08:43:33;;;;;;;5.93;2.67;;;8.90;99.90;;;;;;5299577;26;20609;-65
2024/04/19 08:46:05;;;;;;;3.73;2.23;;;9.00;99.90;;;;;;5301981;26;20532;-65
2024/04/19 08:48:37;;;;;;;4.10;1.97;;;9.00;99.90;;;;;;5293367;26;21429;-65
2024/04/19 08:51:13;;;;;;;2.13;1.80;;;9.00;99.90;;;;;;5295126;26;20924;-65
2024/04/19 08:53:54;;;;;;;4.30;1.93;;;9.00;99.90;;;;;;5289974;26;20548;-65
2024/04/19 08:56:24;;;;;;;2.83;1.77;;;9.10;99.90;;;;;;5291388;26;20569;-65
2024/04/19 08:58:56;;;;;;;3.47;1.20;;;9.10;99.90;;;;;;5306389;26;20603;-66
2024/04/19 09:01:26;;;;;;;4.10;1.00;;;9.10;99.90;;;;;;5314755;26;20542;-65
2024/04/19 09:03:53;;;;;;;2.03;1.30;;;8.90;99.90;;;;;;5295703;26;20594;-65
2024/04/19 09:06:27;;;;;;;3.33;1.40;;;8.60;99.90;;;;;;5297858;26;21534;-65
2024/04/19 09:08:57;;;;;;;2.03;1.20;;;8.50;99.90;;;;;;5291097;26;21460;-65
2024/04/19 09:11:27;;;;;;;1.83;1.10;;;8.40;99.90;;;;;;5298807;26;20560;-65
2024/04/19 09:13:58;;;;;;;1.83;0.93;;;8.30;99.90;;;;;;5326249;26;20533;-65
2024/04/19 09:16:28;;;;;;;2.10;0.83;;;8.30;99.90;;;;;;5296270;26;20500;-65
2024/04/19 09:18:59;;;;;;;1.53;1.07;;;8.30;99.90;;;;;;5291330;26;20494;-65
2024/04/19 09:21:32;;;;;;;2.60;0.93;;;8.30;99.90;;;;;;5290373;26;20571;-65
2024/04/19 09:24:02;;;;;;;2.03;1.33;;;8.40;99.90;;;;;;5308525;26;20625;-65
2024/04/19 09:26:32;;;;;;;2.80;1.13;;;8.40;99.90;;;;;;5290146;26;20993;-65
2024/04/19 09:29:04;;;;;;;4.53;2.37;;;8.50;99.90;;;;;;5283581;26;20497;-66
2024/04/19 09:31:34;;;;;;;2.63;1.00;;;8.50;99.90;;;;;;5281082;26;21448;-66
2024/04/19 09:34:04;;;;;;;5.30;1.50;;;8.60;99.90;;;;;;5286216;26;21005;-67
2024/04/19 09:36:36;;;;;;;4.83;1.67;;;8.60;99.90;;;;;;5292592;26;21061;-65
2024/04/19 09:39:07;;;;;;;3.80;1.27;;;8.60;99.90;;;;;;5287133;26;20478;-65
2024/04/19 09:41:43;;;;;;;2.10;1.00;;;8.70;99.90;;;;;;5280022;26;20542;-65
2024/04/19 09:44:16;;;;;;;1.50;1.30;;;8.70;99.90;;;;;;5304305;26;21039;-65
2024/04/19 09:46:51;;;;;;;8.90;3.50;;;8.60;99.90;;;;;;5323063;26;20490;-68
2024/04/19 09:49:21;;;;;;;3.73;1.90;;;8.60;99.90;;;;;;5317676;26;20872;-65
2024/04/19 09:51:54;;;;;;;3.23;2.43;;;8.60;99.90;;;;;;5292967;26;20486;-65
2024/04/19 09:54:24;;;;;;;3.03;1.93;;;8.60;99.90;;;;;;5292484;26;21865;-65
2024/04/19 09:56:58;;;;;;;6.53;2.67;;;8.60;99.90;;;;;;5286644;26;20528;-65
2024/04/19 09:59:29;;;;;;;5.97;2.60;;;8.60;99.90;;;;;;5277393;26;20481;-66
2024/04/19 10:02:00;;;;;;;3.57;2.20;;;8.60;99.90;;;;;;5285158;26;20480;-65
2024/04/19 10:04:32;;;;;;;4.03;2.30;;;8.60;99.90;;;;;;5304090;26;21149;-65
2024/04/19 10:07:09;;;;;;;2.10;1.73;;;8.70;99.90;;;;;;5288107;26;21652;-65
2024/04/19 10:09:42;;;;;;;2.27;1.90;;;8.80;99.90;;;;;;5301906;26;20556;-65
2024/04/19 10:12:14;;;;;;;4.33;2.03;;;8.90;99.90;;;;;;5296412;26;21587;-64
2024/04/19 10:14:44;;;;;;;4.33;1.90;;;8.90;99.90;;;;;;5308378;26;20830;-65
2024/04/19 10:17:14;;;;;;;3.67;2.20;;;9.00;99.90;;;;;;5337906;26;20529;-65
2024/04/19 10:19:46;;;;;;;3.97;1.73;;;9.10;99.90;;;;;;5336667;26;20527;-65
2024/04/19 10:22:26;;;;;;;4.93;2.70;;;9.10;99.90;;;;;;5299220;26;21844;-64
2024/04/19 10:24:58;;;;;;;8.27;2.83;;;9.20;99.90;;;;;;5304500;26;20492;-65
2024/04/19 10:27:29;;;;;;;7.00;2.80;;;9.30;99.90;;;;;;5315899;26;20488;-68
2024/04/19 10:30:00;;;;;;;4.07;2.90;;;9.40;99.90;;;;;;5309183;26;20515;-64
2024/04/19 10:32:31;;;;;;;4.40;2.07;;;9.40;99.90;;;;;;5296026;26;20478;-65
2024/04/19 10:35:01;;;;;;;4.90;2.23;;;9.40;99.90;;;;;;5301619;26;20481;-65
2024/04/19 10:37:34;;;;;;;6.23;2.67;;;9.40;99.90;;;;;;5314359;26;20489;-65
2024/04/19 10:40:07;;;;;;;3.80;2.60;;;9.50;99.90;;;;;;5301452;26;20566;-66
2024/04/19 10:42:36;;;;;;;4.53;2.37;;;9.50;99.90;;;;;;5326290;26;20569;-66
2024/04/19 10:45:14;;;;;;;5.07;2.03;;;9.50;99.90;;;;;;5301290;26;20497;-66
2024/04/19 10:47:45;;;;;;;3.10;1.70;;;9.50;99.90;;;;;;5294266;26;20494;-65
2024/04/19 10:50:16;;;;;;;7.13;1.90;;;9.60;99.90;;;;;;5315329;26;21052;-66
2024/04/19 10:52:48;;;;;;;1.73;1.23;;;9.60;99.90;;;;;;5329406;26;20535;-66
2024/04/19 10:55:19;;;;;;;5.13;2.00;;;9.60;99.90;;;;;;5300733;26;20481;-65
2024/04/19 10:57:49;;;;;;;3.70;1.90;;;9.70;99.90;;;;;;5296120;26;20492;-65
2024/04/19 11:00:19;;;;;;;2.17;1.93;;;9.70;99.90;;;;;;5294995;26;20485;-65
2024/04/19 11:02:49;;;;;;;4.57;2.00;;;9.80;99.90;;;;;;5322375;26;20484;-65
2024/04/19 11:05:28;;;;;;;5.83;1.80;;;9.80;99.90;;;;;;5307803;26;21240;-65
2024/04/19 11:08:00;;;;;;;3.60;1.93;;;9.80;99.90;;;;;;5320371;26;20476;-65
2024/04/19 11:10:31;;;;;;;5.87;1.90;;;9.80;99.90;;;;;;5300406;26;21685;-66
2024/04/19 11:13:01;;;;;;;4.43;1.53;;;9.70;99.90;;;;;;5294146;26;20478;-65
2024/04/19 11:15:32;;;;;;;5.03;1.70;;;9.80;99.90;;;;;;5303437;26;20540;-66
2024/04/19 11:18:16;;;;;;;3.43;1.27;;;9.90;99.90;;;;;;5295639;26;20492;-65
2024/04/19 11:20:46;;;;;;;3.13;1.40;;;10.00;99.90;;;;;;5301800;26;20480;-66
2024/04/19 11:23:32;;;;;;;4.97;1.40;;;10.00;99.90;;;;;;5304265;26;20573;-66
2024/04/19 11:26:02;;;;;;;2.37;1.20;;;10.00;99.90;;;;;;5289854;26;21426;-65
2024/04/19 11:28:32;;;;;;;3.13;1.40;;;10.00;99.90;;;;;;5295588;26;21148;-65
2024/04/19 11:31:10;;;;;;;3.83;1.60;;;10.00;99.90;;;;;;5288931;26;20496;-65
2024/04/19 11:33:40;;;;;;;3.77;1.80;;;9.90;99.90;;;;;;5296643;26;21249;-65
2024/04/19 11:36:11;;;;;;;3.57;1.53;;;9.90;99.90;;;;;;5304802;26;21164;-67
2024/04/19 11:38:43;;;;;;;3.50;1.57;;;9.80;99.90;;;;;;5336709;26;20634;-67
2024/04/19 11:41:14;;;;;;;3.40;1.53;;;9.80;99.90;;;;;;5310137;26;20468;-67
2024/04/19 11:43:44;;;;;;;5.63;2.17;;;9.90;99.90;;;;;;5296308;26;21547;-67
2024/04/19 11:46:20;;;;;;;5.20;2.23;;;10.00;99.90;;;;;;5297531;26;20480;-69
2024/04/19 11:48:50;;;;;;;6.60;2.10;;;9.90;99.90;;;;;;5293204;26;20538;-64
2024/04/19 11:51:21;;;;;;;4.10;1.90;;;9.80;99.90;;;;;;5308750;26;21252;-66
2024/04/19 11:53:54;;;;;;;4.70;2.00;;;9.70;99.90;;;;;;5295226;26;21097;-66
2024/04/19 11:56:24;;;;;;;4.30;1.90;;;9.70;99.90;;;;;;5299179;26;20484;-67
2024/04/19 11:58:54;;;;;;;5.80;2.10;;;9.80;99.90;;;;;;5295406;26;22324;-65
2024/04/19 12:01:25;;;;;;;3.40;1.60;;;9.80;99.90;;;;;;5316466;26;20501;-66
2024/04/19 12:03:55;;;;;;;5.93;1.87;;;10.00;99.90;;;;;;5316000;26;20485;-68
2024/04/19 12:06:26;;;;;;;3.50;2.20;;;10.00;99.90;;;;;;5291694;26;20485;-64
2024/04/19 12:08:58;;;;;;;5.27;2.00;;;10.10;99.90;;;;;;5291278;26;20554;-66
2024/04/19 12:11:28;;;;;;;5.03;1.67;;;10.20;99.90;;;;;;5295342;26;20484;-66
2024/04/19 12:13:58;;;;;;;4.60;1.80;;;10.30;99.90;;;;;;5304542;26;20540;-66
2024/04/19 12:16:48;;;;;;;6.07;1.77;;;10.40;99.90;;;;;;5329735;26;20529;-66
2024/04/19 12:19:28;;;;;;;6.37;3.43;;;10.50;99.90;;;;;;5324421;26;20587;-67
2024/04/19 12:21:59;;;;;;;3.50;1.80;;;10.60;99.90;;;;;;5299099;26;20536;-66
2024/04/19 12:24:34;;;;;;;6.60;2.00;;;10.80;99.90;;;;;;5294692;26;20480;-66
2024/04/19 12:27:07;;;;;;;3.73;1.50;;;10.90;99.90;;;;;;5301337;26;20565;-65
2024/04/19 12:29:37;;;;;;;3.03;1.80;;;10.90;99.90;;;;;;5289241;26;20580;-65
2024/04/19 12:32:08;;;;;;;2.73;1.63;;;10.90;99.90;;;;;;5289827;26;25310;-66
2024/04/19 12:34:41;;;;;;;4.80;2.00;;;10.90;99.90;;;;;;5307104;26;21448;-67
2024/04/19 12:37:10;;;;;;;4.70;2.03;;;10.90;99.90;;;;;;5302180;26;20745;-67
2024/04/19 12:39:43;;;;;;;4.83;2.03;;;10.90;99.90;;;;;;5298021;26;20493;-67
2024/04/19 12:42:13;;;;;;;4.13;1.83;;;11.10;99.90;;;;;;5337257;26;21087;-66
2024/04/19 12:44:47;;;;;;;8.60;3.80;;;11.20;99.90;;;;;;5324469;26;20489;-66
2024/04/19 12:47:19;;;;;;;3.50;1.83;;;11.20;99.90;;;;;;5302025;26;21122;-66
2024/04/19 12:49:49;;;;;;;10.87;3.93;;;11.10;99.90;;;;;;5301176;26;20473;-65
2024/04/19 12:52:18;;;;;;;4.27;1.83;;;11.20;99.90;;;;;;5334639;26;20883;-66
2024/04/19 12:54:51;;;;;;;3.00;2.13;;;11.30;99.90;;;;;;5318694;26;20644;-65
2024/04/19 12:57:23;;;;;;;3.27;1.60;;;11.60;99.90;;;;;;5295100;26;20477;-65
2024/04/19 12:59:53;;;;;;;4.23;1.90;;;11.80;99.90;;;;;;5300518;26;20593;-65
2024/04/19 13:02:24;;;;;;;5.27;2.00;;;11.90;99.90;;;;;;5304102;26;20497;-66
2024/04/19 13:04:54;;;;;;;2.83;1.67;;;12.10;99.90;;;;;;5294391;26;20828;-65
2024/04/19 13:07:24;;;;;;;6.40;2.13;;;12.20;99.90;;;;;;5296972;26;20527;-65
2024/04/19 13:09:56;;;;;;;3.83;1.73;;;12.30;99.90;;;;;;5298171;26;21096;-66
2024/04/19 13:12:26;;;;;;;6.03;2.13;;;12.40;99.90;;;;;;5291349;26;20473;-65
2024/04/19 13:14:56;;;;;;;5.10;2.00;;;12.40;99.90;;;;;;5301990;26;20530;-64
2024/04/19 13:17:26;;;;;;;7.13;2.53;;;12.40;99.90;;;;;;5294822;26;20479;-65
2024/04/19 13:19:56;;;;;;;7.13;2.87;;;12.40;99.90;;;;;;5296650;26;21270;-64
2024/04/19 13:22:26;;;;;;;6.23;2.60;;;12.40;99.90;;;;;;5294963;26;20536;-65
2024/04/19 13:24:58;;;;;;;5.97;2.37;;;12.30;99.90;;;;;;5297439;26;20982;-66